DEMOS: IP look-up, visitors, map, METAR - This is NOT a real site !

Notice: Undefined index: district in /home/sites/beteljuice.co.uk/public_html/DEMOS/betel_who/who_check.php on line 276 corporate bad guys
Find a country:

Home ...

.... Is where the heart is.

Hello new visitor ... Have some fun with the map whilst you are here !


Location:
,
,
United States
Lat:  ,
Lon:
Other stuff:
District:
as: AS14618 Amazon.com, Inc.
countryCode: US
ISP: Amazon Technologies Inc.
IP address: 3.235.29.190
Region: VA
Time Zone: America/New_York (always useful to know)
Zip / Postal Code: 20149
Organisation: AWS EC2 (us-east-1)

That's All Folks !

METAR stations within miles - nearest first

Currently reporting:
KJYO LEESBURG/GODFREY distance: 4.54 miles. WNW
@ 2020-04-02  20:55 UTC,

     KJYO 022055Z AUTO 33018G27KT 310V010 10SM SCT080 16/00 A2982 RMK AO2
KIAD WASH DC/DULLES distance: 7.89 miles. SSE
@ 2020-04-02  20:52 UTC,

     KIAD 022052Z 32021G28KT 10SM FEW060 17/M03 A2980 RMK AO2 PK WND 30036/2029 SLP089 T01671028 56020
KGAI GAITHERSBURG distance: 19.18 miles. ENE
@ 2020-04-02  20:56 UTC,

     KGAI 022056Z AUTO 33008G23KT 280V010 10SM FEW075 16/M01 A2979 RMK AO2 PK WND 30029/2030 SLP104 T01561011 56014
KHEF MANASSAS MUNI distance: 22.66 miles. S
@ 2020-04-02  20:56 UTC,

     KHEF 022056Z 33016G28KT 10SM BKN085 17/M01 A2982 RMK AO2 PK WND 31028/2049 SLP103 T01671011 56018
KFDK FREDERICK distance: 26.56 miles. NNE
@ 2020-04-02  19:47 UTC,

     KFDK 021947Z 34015G25KT 10SM BKN075 17/M01 A2983
KDCA WASHINGTON/NATL distance: 27.83 miles. ESE
@ 2020-04-02  20:52 UTC,

     KDCA 022052Z 32020G30KT 10SM SCT080 17/M01 A2980 RMK AO2 PK WND 34038/2021 SLP090 T01721006 56018
KDAA FORT BELVOIR/DAV distance: 28.43 miles. SE
@ 2020-04-02  20:56 UTC,

     KDAA 022056Z AUTO 30016G25KT 10SM CLR 17/M02 A2979 RMK AO2 PK WND 31030/21 SLP091 T01721025 57019 $
KCGS COLLEGE PARK distance: 30.92 miles. E
@ 2020-04-02  20:46 UTC,

     KCGS 022046Z AUTO 32017G27KT 290V350 10SM SCT075 16/M06 A2978 RMK AO1 T01551057
KHWY WARRENTON distance: 34.12 miles. SSW
@ 2020-04-02  20:55 UTC,

     KHWY 022055Z AUTO 30020G27KT 10SM CLR 18/M06 A2982 RMK AO2 T01761056
KOKV WINCHESTER RGNL distance: 36.07 miles. W
@ 2020-04-02  20:55 UTC,

     KOKV 022055Z AUTO 31020G28KT 10SM CLR 15/M01 A2982 RMK AO2
KMRB MARTINSBURG distance: 36.2 miles. NW
@ 2020-04-02  20:53 UTC,

     KMRB 022053Z 32010G23KT 10SM CLR 16/M02 A2982 RMK AO2 PK WND 31033/2041 SLP098 T01611022 56018
KADW ANDREWS AFB distance: 36.87 miles. ESE
@ 2020-04-02  20:56 UTC,

     KADW 022056Z AUTO 31012G19KT 10SM FEW080 15/M03 A2977 RMK AO2 PK WND 29035/16 SLP088 T01541026 57017 $
KFME FORT MEADE distance: 38.76 miles. E
@ 2020-04-02  20:45 UTC,

     KFME 022045Z AUTO 30015G24KT 270V330 10SM BKN075 16/M01 A2980 RMK AO1
KCJR CULPEPER distance: 40.76 miles. SSW
@ 2020-04-02  20:55 UTC,

     KCJR 022055Z AUTO 32012G19KT 10SM CLR 17/M05 A2983 RMK AO2 T01741055
KFRR FRONT ROYAL distance: 41.89 miles. WSW
@ 2020-04-02  20:55 UTC,

     KFRR 022055Z AUTO 32011G21KT 290V350 10SM CLR 15/M02 A2984 RMK AO1
KBWI BALTO/WASH INTL distance: 43.94 miles. ENE
@ 2020-04-02  20:54 UTC,

     KBWI 022054Z 31017G25KT 10SM BKN080 16/M02 A2976 RMK AO2 PK WND 30029/2025 SLP077 T01561017 56014
KRMN STAFFORD REGNL distance: 44.53 miles. S
@ 2020-04-02  20:55 UTC,

     KRMN 022055Z AUTO 31017G30KT 10SM CLR 17/M02 A2985 RMK AO2 T01731017
KDMW CARROLL CNTY distance: 46.43 miles. NNE
@ 2020-04-02  20:40 UTC,

     KDMW 022040Z AUTO 33014G22KT 10SM SCT075 17/00 A2978 RMK AO2
KHGR HAGERSTOWN distance: 47.2 miles. NNW
@ 2020-04-02  20:53 UTC,

     KHGR 022053Z 32022G34KT 10SM CLR 16/M02 A2981 RMK AO2 PK WND 31034/2044 SLP105 T01561017 56017
KDMH BALTIMORE/DWNTWN distance: 49.49 miles. ENE
@ 2020-04-02  20:54 UTC,

     KDMH 022054Z AUTO 16/M02 A2976 RMK AO1 SLP077 T01611022 56021

Not current (maybe part-time, military or newly obsolete)
KW32 CLINTON distance: 36.05 miles. SE
KNYG QUANTICO MCAF distance: 39.15 miles. SSE
KRSP NSF THURMONT distance: 41.9 miles. N
KJWX FORT RITCHIE distance: 46.64 miles. N
KRYT FOUNTAIN DALE distance: 47.73 miles. N

Total 'clicks': 441 - Current 'clicks': 1

Last 7 days 16 unique visitors - currently active 1
Ashburn, Virginia, United States - more ...      
- Time on line: 0s. (1 total visits)
Norrmalm, Stockholm, Sweden - more ...      
- Last seen: 1 hrs. 31m. 35s. ago. (1 total visits)
Sidmouth, England, United Kingdom - more ...      
- Last seen: 2 hrs. 13m. 29s. ago. (3 total visits)
Kansas City, Missouri, United States - more ...      
- Last seen: 2 hrs. 40m. 47s. ago. (83 total visits)
Dublin, Leinster, Ireland - more ...      
- Last seen: 6 hrs. 32m. 28s. ago. (7 total visits)
Tjeldsto, Vestland, Norway - more ...      
- Last seen: 10 hrs. 44m. 15s. ago. (197 total visits)
Chicksands, England, United Kingdom - more ...      
- Last seen: 11 hrs. 3m. 22s. ago. (1 total visits)
Paularo, Friuli Venezia Giulia, Italy - more ...      
- Last seen: 11 hrs. 6m. 9s. ago. (2 total visits)
San Mateo, California, United States - more ...      
- Last seen: 11 hrs. 25m. 41s. ago. (1 total visits)
Hefei, Anhui, China - more ...      
- Last seen: 14 hrs. 52m. 42s. ago. (2 total visits)
Moscow, Russia - more ...      
- Last seen: 18 hrs. 52m. 12s. ago. (1 total visits)
Moscow, Russia - more ...      
- Last seen: 18 hrs. 52m. 18s. ago. (1 total visits)
Kansas City, Missouri, United States - more ...      
- Last seen: 18 hrs. 52m. 41s. ago. (1 total visits)
Ilmenau, Thuringia, Germany - more ...      
- Last seen: 1 days 3 hrs. 32m. 47s. ago. (138 total visits)
Clifton, New Jersey, United States - more ...      
- Last seen: 1 days 5 hrs. 29m. 22s. ago. (1 total visits)
Dublin, Leinster, Ireland - more ...      
- Last seen: 1 days 6 hrs. 8m. 1s. ago. (1 total visits)
By Country:
                       9 countries, 16 visitors, 441 hits
United States:
                              5 visitors, 87 hits
Ashburn, Virginia, United States - more ...      
- Time on line: 0s. (1 total visits)
Kansas City, Missouri, United States - more ...      
- Last seen: 2 hrs. 40m. 47s. ago. (83 total visits)
San Mateo, California, United States - more ...      
- Last seen: 11 hrs. 25m. 41s. ago. (1 total visits)
Kansas City, Missouri, United States - more ...      
- Last seen: 18 hrs. 52m. 41s. ago. (1 total visits)
Clifton, New Jersey, United States - more ...      
- Last seen: 1 days 5 hrs. 29m. 22s. ago. (1 total visits)
Sweden:
                              1 visitors, 1 hits
Norrmalm, Stockholm, Sweden - more ...      
- Last seen: 1 hrs. 31m. 35s. ago. (1 total visits)
United Kingdom:
                              2 visitors, 4 hits
Sidmouth, England, United Kingdom - more ...      
- Last seen: 2 hrs. 13m. 29s. ago. (3 total visits)
Chicksands, England, United Kingdom - more ...      
- Last seen: 11 hrs. 3m. 22s. ago. (1 total visits)
Ireland:
                              2 visitors, 8 hits
Dublin, Leinster, Ireland - more ...      
- Last seen: 6 hrs. 32m. 28s. ago. (7 total visits)
Dublin, Leinster, Ireland - more ...      
- Last seen: 1 days 6 hrs. 8m. 1s. ago. (1 total visits)
Norway:
                              1 visitors, 197 hits
Tjeldsto, Vestland, Norway - more ...      
- Last seen: 10 hrs. 44m. 15s. ago. (197 total visits)
Italy:
                              1 visitors, 2 hits
Paularo, Friuli Venezia Giulia, Italy - more ...      
- Last seen: 11 hrs. 6m. 9s. ago. (2 total visits)
China:
                              1 visitors, 2 hits
Hefei, Anhui, China - more ...      
- Last seen: 14 hrs. 52m. 42s. ago. (2 total visits)
Russia:
                              2 visitors, 2 hits
Moscow, Russia - more ...      
- Last seen: 18 hrs. 52m. 12s. ago. (1 total visits)
Moscow, Russia - more ...      
- Last seen: 18 hrs. 52m. 18s. ago. (1 total visits)
Germany:
                              1 visitors, 138 hits
Ilmenau, Thuringia, Germany - more ...      
- Last seen: 1 days 3 hrs. 32m. 47s. ago. (138 total visits)

Another beteljuice plaything